Ana Sayfa
METAR-TAF:

METAR-TAF

Havaalanları :

Harbin Taiping Uluslararası Havalimanı

Harbin, Çin

Enlem: 45-45N, Boylam: 126-46E, yükseklik: 143 m

Güncel hava durumu gözlemi

Rapor saat 22:00 UTC de 41 dakika önce yapıldı.
Rüzgar güneydan 4 kt, doğu/güneydoğu ve güney/güneybatı arasında değişken
Sıcaklık 11°C
Nem 87%
Basınç 1009 hPa
Görüş mesafesi 10 km veya daha fazla
1500 m altında bulut yok ve kümülonimbus yok

METAR: ZYHB 202200Z 17002MPS 120V200 CAVOK 11/09 Q1009 NOSIG

Saat: 06:41 (22:41 UTC)

Tahmin

Rapor saat 14:07 UTC de 8 saat ve 34 dakika önce yapıldı.
Ayın 20'si saat 18 UTC'den ayın 21'si saat 18 UTC'ye kadar geçerli Tahmin
Rüzgar güney/güneydoğudan 8 kt
Görüş mesafesi: 6000 m
3000 ft yükseklikte parçalı bulutlu

TAF: ZYHB 201407Z 2018/2118 16004MPS 6000 SCT030 TX18/2106Z TN12/2021Z

4.000'den fazla havaalanı için hava durumu gözlemleri ve tahminleri (METAR ve TAF raporları).

Kullanılabilir istasyonlar harita üzerinde sarı ve kırmızı noktalarla gösterilir.

İstasyonun adını görmek için fareyi noktanın üzerinde gezdirin.

Sonrasında hava gözlem ve tahminlerini görmek için tıklayın.

Haritayı değiştirmek için: yaklaştırmak için siyah artı işaretli yeşil düğmeye ve uzaklaştırmak için de eksi işaretli düğmeye hızla tıklayın; bitişik haritalar için yeşil okları kullanın.


METAR-TAF: